Time;durP1;ratioP1;P1;durP2;ratioP2;P2;SDS_P1;SDS_P2;PMS_P1;PMS_P2;Temp;Humidity;BMP_temperature;BMP_pressure;BME280_temperature;BME280_humidity;BME280_pressure;Samples;Min_cycle;Max_cycle;Signal;HPM_P1;HPM_P2
2023/08/28 00:00:47;;;;;;;3.85;1.90;;;;;;;11.48;100.00;92662.66;2097033;28;20372;-81
2023/08/28 00:01:48;;;;;;;5.75;1.80;;;;;;;11.47;100.00;92653.88;2097759;28;20028;-82
2023/08/28 00:02:49;;;;;;;3.50;2.05;;;;;;;11.39;100.00;92657.22;2109299;28;20027;-81
2023/08/28 00:03:50;;;;;;;6.80;1.85;;;;;;;11.30;100.00;92650.59;2113759;27;20157;-82
2023/08/28 00:04:51;;;;;;;5.78;1.90;;;;;;;11.39;100.00;92654.56;2109827;28;20024;-82
2023/08/28 00:05:51;;;;;;;7.28;1.80;;;;;;;11.35;100.00;92652.72;2111979;27;20144;-82
2023/08/28 00:06:52;;;;;;;5.20;2.00;;;;;;;11.40;100.00;92661.41;2105182;28;20070;-81
2023/08/28 00:07:53;;;;;;;3.05;1.63;;;;;;;11.44;100.00;92662.78;2104262;28;20378;-81
2023/08/28 00:08:54;;;;;;;3.20;2.38;;;;;;;11.47;100.00;92672.63;2105743;28;20352;-82
2023/08/28 00:09:55;;;;;;;2.55;1.95;;;;;;;11.49;100.00;92686.31;2105563;28;20039;-81
2023/08/28 00:10:56;;;;;;;5.55;1.95;;;;;;;11.36;100.00;92682.91;2108636;28;20050;-82
2023/08/28 00:11:57;;;;;;;5.30;1.70;;;;;;;11.39;100.00;92692.75;2097243;28;20339;-81
2023/08/28 00:12:58;;;;;;;1.98;1.60;;;;;;;11.40;100.00;92688.91;2097068;28;20497;-82
2023/08/28 00:13:59;;;;;;;6.85;1.83;;;;;;;11.44;100.00;92689.53;2094695;28;20623;-82
2023/08/28 00:15:00;;;;;;;3.97;1.70;;;;;;;11.53;100.00;92686.19;2096821;28;20394;-81
2023/08/28 00:16:02;;;;;;;5.47;1.75;;;;;;;11.33;100.00;92683.78;2116655;27;20042;-83
2023/08/28 00:17:05;;;;;;;5.32;1.80;;;;;;;11.40;100.00;92683.53;2113415;27;20032;-82
2023/08/28 00:18:06;;;;;;;2.50;1.60;;;;;;;11.32;100.00;92683.00;2097268;28;20540;-82
2023/08/28 00:19:07;;;;;;;2.35;1.63;;;;;;;11.26;100.00;92674.03;2105813;28;20153;-81
2023/08/28 00:20:08;;;;;;;3.55;1.85;;;;;;;11.31;100.00;92675.44;2113129;28;20032;-82
2023/08/28 00:21:09;;;;;;;6.45;1.70;;;;;;;11.23;100.00;92682.19;2097161;28;20513;-82
2023/08/28 00:22:10;;;;;;;3.78;2.10;;;;;;;11.22;100.00;92678.75;2104825;28;20032;-81
2023/08/28 00:23:11;;;;;;;2.95;1.92;;;;;;;11.27;100.00;92677.47;2113709;28;20102;-82
2023/08/28 00:24:12;;;;;;;7.43;2.08;;;;;;;11.20;100.00;92681.13;2113879;27;20019;-82
2023/08/28 00:25:13;;;;;;;7.00;1.90;;;;;;;11.18;100.00;92691.50;2092845;28;20115;-81
2023/08/28 00:26:14;;;;;;;6.97;1.70;;;;;;;11.22;100.00;92686.03;2104986;28;20023;-83
2023/08/28 00:27:15;;;;;;;3.95;2.25;;;;;;;11.21;100.00;92681.88;2105021;28;20032;-81
2023/08/28 00:28:16;;;;;;;4.35;1.80;;;;;;;11.34;100.00;92683.34;2101575;28;20422;-83
2023/08/28 00:29:17;;;;;;;4.40;1.92;;;;;;;11.39;100.00;92675.97;2105493;28;20024;-81
2023/08/28 00:30:18;;;;;;;3.80;1.80;;;;;;;11.30;100.00;92666.66;2113824;28;20019;-82
2023/08/28 00:31:19;;;;;;;4.25;1.85;;;;;;;11.25;100.00;92666.47;2121066;27;20400;-81
2023/08/28 00:32:19;;;;;;;10.18;2.10;;;;;;;11.27;100.00;92670.19;2102879;28;20021;-79
2023/08/28 00:33:20;;;;;;;4.97;1.67;;;;;;;11.27;100.00;92666.75;2104527;28;20044;-80
2023/08/28 00:34:21;;;;;;;3.60;1.90;;;;;;;11.33;100.00;92673.09;2093798;28;20024;-82
2023/08/28 00:35:22;;;;;;;2.63;1.95;;;;;;;11.27;100.00;92669.44;2101790;27;20031;-82
2023/08/28 00:36:23;;;;;;;4.20;1.88;;;;;;;11.24;100.00;92668.38;2116167;27;20077;-81
2023/08/28 00:37:24;;;;;;;4.90;1.85;;;;;;;11.20;100.00;92669.69;2112424;27;20069;-82
2023/08/28 00:38:25;;;;;;;8.20;1.80;;;;;;;11.22;100.00;92668.06;2113656;28;20032;-81
2023/08/28 00:39:27;;;;;;;4.32;2.10;;;;;;;11.22;100.00;92662.72;2113054;28;20090;-79
2023/08/28 00:40:28;;;;;;;6.57;2.03;;;;;;;11.26;100.00;92670.63;2114912;27;20030;-81
2023/08/28 00:41:29;;;;;;;2.00;1.75;;;;;;;11.19;100.00;92671.59;2120214;27;20031;-82
2023/08/28 00:42:30;;;;;;;2.88;1.70;;;;;;;11.12;100.00;92671.06;2108616;28;20132;-82
2023/08/28 00:43:31;;;;;;;2.60;1.95;;;;;;;11.19;100.00;92668.91;2115525;27;20385;-83
2023/08/28 00:44:32;;;;;;;2.83;1.60;;;;;;;11.27;100.00;92664.84;2112763;28;20065;-81
2023/08/28 00:45:33;;;;;;;8.07;2.33;;;;;;;11.29;100.00;92667.09;2098085;28;20028;-81
2023/08/28 00:46:34;;;;;;;2.67;2.10;;;;;;;11.19;100.00;92663.56;2090293;28;20489;-82
2023/08/28 00:47:36;;;;;;;6.90;1.83;;;;;;;11.17;100.00;92668.59;2098637;28;20063;-81
2023/08/28 00:48:37;;;;;;;2.95;1.90;;;;;;;11.19;100.00;92676.19;2109458;28;20107;-82
2023/08/28 00:49:38;;;;;;;1.98;1.77;;;;;;;11.20;100.00;92678.44;2110648;27;20039;-82
2023/08/28 00:50:49;;;;;;;4.45;1.73;;;;;;;11.14;100.00;92676.72;2112169;28;20022;-82
2023/08/28 00:52:00;;;;;;;5.47;1.85;;;;;;;11.22;100.00;92684.09;2113157;28;20027;-82
2023/08/28 00:53:01;;;;;;;2.55;1.85;;;;;;;11.29;100.00;92678.53;2112647;27;20028;-81
2023/08/28 00:54:03;;;;;;;4.68;2.00;;;;;;;11.33;100.00;92681.13;2112930;28;20069;-81
2023/08/28 00:55:04;;;;;;;4.72;2.30;;;;;;;11.27;100.00;92686.25;2110990;28;20142;-81
2023/08/28 00:56:05;;;;;;;5.03;2.22;;;;;;;11.22;100.00;92688.72;2114935;27;20110;-81
2023/08/28 00:57:07;;;;;;;4.80;1.90;;;;;;;11.26;100.00;92684.75;2113637;27;20900;-81
2023/08/28 00:58:09;;;;;;;3.95;2.10;;;;;;;11.19;100.00;92684.22;2114004;28;20493;-83
2023/08/28 00:59:10;;;;;;;3.17;1.90;;;;;;;11.15;100.00;92686.25;2109738;27;20061;-82
2023/08/28 01:00:12;;;;;;;5.90;2.00;;;;;;;11.24;100.00;92681.03;2105672;28;20063;-81
2023/08/28 01:01:13;;;;;;;6.60;1.70;;;;;;;11.25;100.00;92693.22;2108271;28;20028;-81
2023/08/28 01:02:14;;;;;;;6.70;1.90;;;;;;;11.22;100.00;92686.03;2105478;28;20646;-81
2023/08/28 01:03:15;;;;;;;3.63;1.95;;;;;;;11.19;100.00;92682.28;2113329;28;20041;-82
2023/08/28 01:04:16;;;;;;;4.88;2.17;;;;;;;11.24;100.00;92691.72;2104528;28;20413;-82
2023/08/28 01:05:17;;;;;;;7.22;2.58;;;;;;;11.22;100.00;92686.03;2096564;28;20360;-82
2023/08/28 01:06:30;;;;;;;5.47;2.15;;;;;;;11.21;100.00;92696.00;2120366;27;20023;-82
2023/08/28 01:08:02;;;;;;;4.40;1.83;;;;;;;11.21;100.00;92695.25;2116873;27;20031;-81
2023/08/28 01:09:33;;;;;;;6.10;2.25;;;;;;;11.19;100.00;92701.00;2111709;28;20027;-81
2023/08/28 01:10:39;;;;;;;4.07;1.88;;;;;;;11.23;100.00;92688.28;2112807;27;20015;-81
2023/08/28 01:12:03;;;;;;;5.05;2.15;;;;;;;11.30;100.00;92687.31;2114309;27;20030;-79
2023/08/28 01:13:31;;;;;;;3.35;1.83;;;;;;;11.33;100.00;92689.88;2091135;28;20343;-81
2023/08/28 01:14:37;;;;;;;2.72;1.67;;;;;;;11.29;100.00;92683.16;2108865;27;20050;-82
2023/08/28 01:15:39;;;;;;;6.90;1.70;;;;;;;11.29;100.00;92683.91;2118664;27;20563;-82
2023/08/28 01:16:44;;;;;;;2.45;1.33;;;;;;;11.30;100.00;92673.94;2113084;28;20361;-81
2023/08/28 01:17:50;;;;;;;5.15;1.70;;;;;;;11.33;100.00;92673.09;2106206;28;20038;-82
2023/08/28 01:18:52;;;;;;;9.07;2.22;;;;;;;11.29;100.00;92669.78;2094105;28;20024;-82
2023/08/28 01:19:55;;;;;;;3.70;1.50;;;;;;;11.28;100.00;92665.59;2105088;28;20016;-81
2023/08/28 01:20:57;;;;;;;3.10;1.80;;;;;;;11.30;100.00;92665.91;2112819;27;20034;-81
2023/08/28 01:22:18;;;;;;;3.35;2.05;;;;;;;11.24;100.00;92662.28;2113899;28;20460;-82
2023/08/28 01:23:37;;;;;;;5.97;2.20;;;;;;;11.18;100.00;92664.00;2103125;28;20044;-81
2023/08/28 01:24:51;;;;;;;4.20;2.00;;;;;;;11.16;100.00;92666.38;2110679;28;20498;-81
2023/08/28 01:25:53;;;;;;;2.67;2.30;;;;;;;11.10;100.00;92658.13;2112948;27;20023;-81
2023/08/28 01:26:54;;;;;;;6.18;2.00;;;;;;;11.16;100.00;92661.75;2106982;28;20428;-79
2023/08/28 01:27:56;;;;;;;6.85;1.60;;;;;;;11.11;100.00;92656.97;2111950;27;20353;-81
2023/08/28 01:28:57;;;;;;;6.63;2.03;;;;;;;11.15;100.00;92657.59;2103130;28;20027;-81
2023/08/28 01:30:08;;;;;;;8.98;2.15;;;;;;;11.16;100.00;92658.34;2105955;28;20042;-80
2023/08/28 01:31:09;;;;;;;2.97;1.75;;;;;;;11.24;100.00;92651.59;2115371;27;20095;-80
2023/08/28 01:32:10;;;;;;;2.03;1.83;;;;;;;11.12;100.00;92658.44;2113417;27;20065;-81
2023/08/28 01:33:11;;;;;;;3.30;2.00;;;;;;;11.16;100.00;92651.06;2105714;28;20439;-81
2023/08/28 01:34:12;;;;;;;4.15;1.90;;;;;;;11.29;100.00;92649.13;2112989;27;20044;-80
2023/08/28 01:35:17;;;;;;;4.68;1.95;;;;;;;11.28;100.00;92649.53;2105172;28;20019;-81
2023/08/28 01:36:30;;;;;;;8.98;2.33;;;;;;;11.14;100.00;92652.66;2090735;28;20029;-81
2023/08/28 01:37:39;;;;;;;4.38;2.20;;;;;;;11.15;100.00;92654.91;2087943;28;20115;-80
2023/08/28 01:38:57;;;;;;;6.53;1.83;;;;;;;11.14;100.00;92656.06;2094845;28;20074;-80
2023/08/28 01:40:05;;;;;;;5.28;1.95;;;;;;;11.21;100.00;92655.88;2098700;28;20542;-81
2023/08/28 01:41:12;;;;;;;4.00;1.85;;;;;;;11.13;100.00;92656.50;2099884;28;20766;-81
2023/08/28 01:42:15;;;;;;;7.03;1.90;;;;;;;11.17;100.00;92662.50;2113808;27;20468;-80
2023/08/28 01:43:20;;;;;;;9.90;2.00;;;;;;;11.18;100.00;92658.66;2104745;28;20165;-80
2023/08/28 01:44:22;;;;;;;3.97;2.00;;;;;;;11.16;100.00;92653.00;2102183;28;20020;-81
2023/08/28 01:45:25;;;;;;;3.38;2.00;;;;;;;11.10;100.00;92647.41;2113247;28;20023;-80
2023/08/28 01:46:27;;;;;;;4.22;2.00;;;;;;;11.05;100.00;92646.03;2110299;28;20074;-80
2023/08/28 01:47:28;;;;;;;3.55;1.92;;;;;;;11.02;100.00;92646.16;2114752;27;20098;-81
2023/08/28 01:48:29;;;;;;;2.65;1.73;;;;;;;11.03;100.00;92634.28;2113143;28;20420;-80
2023/08/28 01:49:33;;;;;;;2.60;2.03;;;;;;;11.03;100.00;92634.28;2112647;28;20031;-80
2023/08/28 01:50:34;;;;;;;10.25;2.20;;;;;;;10.94;100.00;92636.88;2112458;28;20019;-80
2023/08/28 01:51:35;;;;;;;5.47;2.30;;;;;;;10.91;100.00;92629.69;2096325;28;20066;-81
2023/08/28 01:52:36;;;;;;;6.95;1.90;;;;;;;10.95;100.00;92620.38;2104508;28;20026;-80
2023/08/28 01:53:37;;;;;;;5.05;2.13;;;;;;;10.99;100.00;92615.66;2104662;28;20024;-80
2023/08/28 01:54:38;;;;;;;5.05;2.08;;;;;;;11.10;100.00;92618.00;2104300;28;20036;-80
2023/08/28 01:55:45;;;;;;;5.35;1.80;;;;;;;11.09;100.00;92616.50;2111230;28;20061;-81
2023/08/28 01:56:46;;;;;;;7.32;1.98;;;;;;;11.11;100.00;92611.50;2105406;28;20051;-80
2023/08/28 01:57:47;;;;;;;3.50;2.35;;;;;;;11.02;100.00;92617.50;2105445;28;20504;-81
2023/08/28 01:58:54;;;;;;;5.35;2.33;;;;;;;11.03;100.00;92615.56;2104467;28;20039;-81
2023/08/28 01:59:55;;;;;;;4.63;1.90;;;;;;;11.03;100.00;92607.53;2113298;28;20020;-79
2023/08/28 02:00:56;;;;;;;7.15;2.00;;;;;;;11.00;100.00;92611.81;2112380;28;20458;-81
2023/08/28 02:01:57;;;;;;;7.50;2.10;;;;;;;11.04;100.00;92604.41;2094808;28;20024;-81
2023/08/28 02:02:58;;;;;;;5.55;2.13;;;;;;;11.14;100.00;92602.59;2094590;28;20538;-80
2023/08/28 02:04:00;;;;;;;2.80;2.20;;;;;;;11.03;100.00;92602.94;2095792;28;20159;-81
2023/08/28 02:05:01;;;;;;;11.93;3.53;;;;;;;11.02;100.00;92600.69;2104850;28;20135;-80
2023/08/28 02:06:02;;;;;;;8.85;1.80;;;;;;;10.98;100.00;92597.38;2117517;27;20055;-81
2023/08/28 02:07:03;;;;;;;4.93;1.88;;;;;;;11.01;100.00;92604.53;2113467;27;20077;-80
2023/08/28 02:08:05;;;;;;;6.50;2.25;;;;;;;11.03;100.00;92596.84;2112417;27;20066;-81
2023/08/28 02:09:05;;;;;;;7.45;2.30;;;;;;;11.03;100.00;92594.16;2112019;27;20479;-82
2023/08/28 02:10:07;;;;;;;3.42;2.13;;;;;;;11.02;100.00;92595.34;2112278;28;20193;-82
2023/08/28 02:11:08;;;;;;;5.53;2.00;;;;;;;11.14;100.00;92591.13;2113088;28;20027;-80
2023/08/28 02:12:09;;;;;;;10.43;2.60;;;;;;;11.22;100.00;92587.06;2115893;27;20023;-80
2023/08/28 02:13:10;;;;;;;9.48;2.30;;;;;;;11.08;100.00;92588.28;2112768;28;20032;-81
2023/08/28 02:14:11;;;;;;;4.85;2.30;;;;;;;11.12;100.00;92590.84;2101875;28;20044;-81
2023/08/28 02:15:12;;;;;;;3.83;2.13;;;;;;;11.23;100.00;92589.28;2086656;28;20466;-80
2023/08/28 02:16:13;;;;;;;3.15;1.90;;;;;;;11.23;100.00;92591.22;2104485;28;20079;-81
2023/08/28 02:17:13;;;;;;;2.40;2.13;;;;;;;11.26;100.00;92588.44;2116695;27;20399;-80
2023/08/28 02:18:15;;;;;;;2.70;1.77;;;;;;;11.25;100.00;92586.19;2110478;27;20059;-82
2023/08/28 02:19:16;;;;;;;6.00;1.90;;;;;;;11.21;100.00;92582.91;2096472;28;20104;-81
2023/08/28 02:20:17;;;;;;;3.53;2.10;;;;;;;11.18;100.00;92584.50;2097282;28;20021;-81
2023/08/28 02:22:46;;;;;;;;;;;;;;;10.77;100.00;92575.47;2146475;27;20557;-80
2023/08/28 02:23:47;;;;;;;4.20;2.20;;;;;;;10.81;100.00;92581.47;2140553;27;19914;-81
2023/08/28 02:24:48;;;;;;;5.70;2.13;;;;;;;10.79;100.00;92581.13;2121345;27;20174;-82
2023/08/28 02:25:50;;;;;;;4.65;2.20;;;;;;;10.81;100.00;92586.81;2124533;27;20023;-81
2023/08/28 02:26:51;;;;;;;7.78;2.30;;;;;;;10.76;100.00;92578.59;2120048;27;20525;-81
2023/08/28 02:27:52;;;;;;;5.32;2.25;;;;;;;10.76;100.00;92589.28;2124578;27;20073;-80
2023/08/28 02:28:53;;;;;;;7.88;2.60;;;;;;;10.87;100.00;92587.00;2121822;27;20107;-81
2023/08/28 02:29:54;;;;;;;5.20;2.40;;;;;;;10.77;100.00;92590.78;2123582;27;20023;-82
2023/08/28 02:30:58;;;;;;;5.97;2.22;;;;;;;10.80;100.00;92585.31;2133145;27;20054;-82
2023/08/28 02:31:59;;;;;;;9.93;2.50;;;;;;;10.88;100.00;92587.75;2137831;27;20020;-81
2023/08/28 02:33:00;;;;;;;6.00;2.45;;;;;;;10.80;100.00;92584.59;2141626;27;20027;-81
2023/08/28 02:34:01;;;;;;;7.53;2.40;;;;;;;10.71;100.00;92587.13;2142356;27;20466;-81
2023/08/28 02:35:03;;;;;;;6.90;2.30;;;;;;;10.80;100.00;92589.94;2138838;27;20058;-82
2023/08/28 02:36:04;;;;;;;8.13;2.20;;;;;;;10.74;100.00;92591.63;2132955;27;20048;-81
2023/08/28 02:37:05;;;;;;;6.00;2.28;;;;;;;10.69;100.00;92595.59;2121049;27;20028;-81
2023/08/28 02:38:08;;;;;;;3.13;2.53;;;;;;;10.72;100.00;92594.00;2124462;27;20332;-81
2023/08/28 02:39:09;;;;;;;4.15;2.30;;;;;;;10.75;100.00;92593.84;2118341;27;20039;-81
2023/08/28 02:40:10;;;;;;;4.40;2.55;;;;;;;10.65;100.00;92594.94;2112012;28;20019;-81
2023/08/28 02:41:11;;;;;;;7.22;2.15;;;;;;;10.72;100.00;92597.41;2124576;27;20020;-81
2023/08/28 02:42:12;;;;;;;2.95;2.40;;;;;;;10.75;100.00;92599.22;2129722;27;20468;-81
2023/08/28 02:43:13;;;;;;;6.40;2.35;;;;;;;10.64;100.00;92604.16;2123725;27;20034;-81
2023/08/28 02:44:14;;;;;;;2.22;1.75;;;;;;;10.67;100.00;92591.84;2115557;27;20023;-82
2023/08/28 02:45:15;;;;;;;7.10;2.30;;;;;;;10.74;100.00;92600.38;2111509;28;20043;-81
2023/08/28 02:46:16;;;;;;;3.03;2.15;;;;;;;10.73;100.00;92595.47;2107700;28;20032;-82
2023/08/28 02:47:18;;;;;;;4.63;2.15;;;;;;;10.79;100.00;92594.50;2115645;27;20043;-81
2023/08/28 02:48:18;;;;;;;7.80;2.03;;;;;;;10.72;100.00;92589.38;2112922;28;20114;-81
2023/08/28 02:49:20;;;;;;;7.68;2.25;;;;;;;10.71;100.00;92595.16;2120457;27;20018;-80
2023/08/28 02:50:20;;;;;;;5.68;2.72;;;;;;;10.73;100.00;92585.53;2124866;27;20026;-80
2023/08/28 02:51:21;;;;;;;7.15;2.65;;;;;;;10.74;100.00;92580.94;2136590;27;20053;-81
2023/08/28 02:52:22;;;;;;;5.80;2.30;;;;;;;10.75;100.00;92575.16;2112635;28;20023;-82
2023/08/28 02:53:23;;;;;;;4.20;2.35;;;;;;;10.80;100.00;92584.59;2114189;27;20113;-80
2023/08/28 02:54:24;;;;;;;8.13;2.33;;;;;;;10.93;100.00;92577.28;2132933;27;20105;-80
2023/08/28 02:55:26;;;;;;;6.63;2.58;;;;;;;10.88;100.00;92577.81;2132393;27;20098;-81
2023/08/28 02:56:38;;;;;;;7.75;2.28;;;;;;;10.91;100.00;92576.22;2124330;27;20030;-81
2023/08/28 02:57:39;;;;;;;4.18;2.25;;;;;;;10.88;100.00;92579.72;2119793;27;20027;-81
2023/08/28 02:58:40;;;;;;;4.50;2.40;;;;;;;10.84;100.00;92569.16;2123889;27;20356;-82
2023/08/28 02:59:41;;;;;;;11.45;2.78;;;;;;;10.79;100.00;92570.44;2132785;27;20513;-81
2023/08/28 03:00:42;;;;;;;13.45;2.55;;;;;;;10.82;100.00;92571.53;2128913;27;20054;-81
2023/08/28 03:01:43;;;;;;;3.88;2.33;;;;;;;10.91;100.00;92571.59;2113369;28;20403;-82
2023/08/28 03:02:46;;;;;;;2.78;2.25;;;;;;;10.97;100.00;92569.88;2115641;28;20050;-81
2023/08/28 03:03:47;;;;;;;6.50;2.35;;;;;;;11.04;100.00;92566.97;2126160;27;20027;-82
2023/08/28 03:04:48;;;;;;;6.70;2.60;;;;;;;10.93;100.00;92563.91;2120368;27;20035;-81
2023/08/28 03:05:49;;;;;;;4.88;2.75;;;;;;;11.11;100.00;92560.66;2119804;27;20415;-81
2023/08/28 03:06:50;;;;;;;9.80;2.80;;;;;;;11.04;100.00;92556.28;2120035;27;20031;-80
2023/08/28 03:07:51;;;;;;;6.47;2.70;;;;;;;10.97;100.00;92559.19;2132895;27;20455;-81
2023/08/28 03:08:52;;;;;;;7.60;2.22;;;;;;;11.06;100.00;92558.50;2144135;27;20034;-81
2023/08/28 03:09:53;;;;;;;8.93;2.80;;;;;;;11.07;100.00;92560.78;2132496;27;20462;-81
2023/08/28 03:10:54;;;;;;;4.82;2.40;;;;;;;11.02;100.00;92550.63;2123995;27;20049;-80
2023/08/28 03:11:56;;;;;;;11.80;2.58;;;;;;;10.99;100.00;92548.06;2129583;27;20483;-80
2023/08/28 03:12:57;;;;;;;7.03;2.67;;;;;;;10.97;100.00;92551.16;2126587;27;20023;-80
2023/08/28 03:13:57;;;;;;;9.73;2.95;;;;;;;11.02;100.00;92558.66;2122716;27;20023;-81
2023/08/28 03:14:58;;;;;;;7.28;2.50;;;;;;;11.04;100.00;92550.94;2122467;27;20053;-82
2023/08/28 03:15:59;;;;;;;6.57;2.70;;;;;;;10.97;100.00;92555.75;2104475;28;20424;-80
2023/08/28 03:17:00;;;;;;;9.57;3.28;;;;;;;10.97;100.00;92550.41;2115151;27;20023;-81
2023/08/28 03:18:02;;;;;;;5.13;2.42;;;;;;;11.03;100.00;92559.41;2133588;27;20336;-80
2023/08/28 03:19:03;;;;;;;4.55;2.60;;;;;;;10.98;100.00;92554.59;2133234;27;20050;-80
2023/08/28 03:20:04;;;;;;;6.10;2.70;;;;;;;11.01;100.00;92554.47;2111083;28;20032;-81
2023/08/28 03:21:05;;;;;;;8.18;2.50;;;;;;;10.95;100.00;92550.84;2113996;27;20464;-81
2023/08/28 03:22:08;;;;;;;2.70;2.15;;;;;;;11.01;100.00;92554.47;2133056;27;20045;-80
2023/08/28 03:23:09;;;;;;;5.22;2.58;;;;;;;11.02;100.00;92552.56;2123051;27;20027;-81
2023/08/28 03:24:10;;;;;;;5.60;2.33;;;;;;;10.98;100.00;92558.03;2124868;27;20027;-81
2023/08/28 03:25:11;;;;;;;11.35;2.85;;;;;;;11.00;100.00;92550.31;2123789;27;20110;-81
2023/08/28 03:26:12;;;;;;;10.98;2.45;;;;;;;11.03;100.00;92562.81;2108547;28;20057;-80
2023/08/28 03:27:13;;;;;;;3.40;2.38;;;;;;;10.96;100.00;92565.72;2122922;27;20038;-81
2023/08/28 03:28:14;;;;;;;7.28;2.92;;;;;;;10.94;100.00;92557.38;2112923;28;20028;-81
2023/08/28 03:29:15;;;;;;;4.38;2.33;;;;;;;11.02;100.00;92557.91;2115358;28;20124;-81
2023/08/28 03:30:16;;;;;;;6.78;2.40;;;;;;;11.00;100.00;92563.66;2126317;27;20026;-81
2023/08/28 03:31:17;;;;;;;4.93;2.58;;;;;;;10.96;100.00;92554.28;2130501;27;20023;-80
2023/08/28 03:32:18;;;;;;;5.95;2.45;;;;;;;10.97;100.00;92555.75;2123519;27;20178;-81
2023/08/28 03:33:19;;;;;;;6.50;3.50;;;;;;;10.99;100.00;92556.84;2123800;27;20114;-80
2023/08/28 03:34:20;;;;;;;5.30;2.80;;;;;;;10.97;100.00;92558.44;2117446;27;20019;-81
2023/08/28 03:35:21;;;;;;;6.97;2.80;;;;;;;10.90;100.00;92558.69;2107653;28;20083;-80
2023/08/28 03:36:22;;;;;;;6.15;3.00;;;;;;;10.95;100.00;92558.13;2118034;27;20023;-80
2023/08/28 03:37:23;;;;;;;11.40;3.30;;;;;;;11.02;100.00;92553.31;2129039;27;20520;-81
2023/08/28 03:38:23;;;;;;;6.32;2.90;;;;;;;11.09;100.00;92561.09;2123111;27;20124;-81
2023/08/28 03:39:24;;;;;;;6.97;2.55;;;;;;;11.03;100.00;92554.78;2124285;27;20026;-81
2023/08/28 03:40:25;;;;;;;6.25;2.97;;;;;;;11.00;100.00;92560.25;2116884;27;20054;-80
2023/08/28 03:41:26;;;;;;;3.42;2.40;;;;;;;10.95;100.00;92558.13;2101317;28;20031;-80
2023/08/28 03:42:27;;;;;;;4.40;2.70;;;;;;;11.02;100.00;92560.59;2102815;28;20055;-81
2023/08/28 03:43:28;;;;;;;4.55;2.63;;;;;;;11.00;100.00;92566.34;2108690;28;20023;-80
2023/08/28 03:44:29;;;;;;;5.07;2.50;;;;;;;10.97;100.00;92566.47;2097351;28;20522;-81
2023/08/28 03:45:30;;;;;;;5.95;2.80;;;;;;;10.98;100.00;92559.94;2106670;27;20070;-82
2023/08/28 03:46:31;;;;;;;5.53;2.42;;;;;;;10.95;100.00;92558.88;2115819;27;20420;-80
2023/08/28 03:47:32;;;;;;;8.88;2.63;;;;;;;10.98;100.00;92557.28;2108788;28;20027;-81
2023/08/28 03:48:33;;;;;;;6.45;2.83;;;;;;;10.94;100.00;92562.00;2107864;28;20020;-81
2023/08/28 03:49:34;;;;;;;5.57;2.78;;;;;;;10.95;100.00;92553.53;2116639;27;20027;-81
2023/08/28 03:50:35;;;;;;;9.88;2.70;;;;;;;10.99;100.00;92556.84;2125368;27;20344;-81
2023/08/28 03:51:36;;;;;;;9.55;3.70;;;;;;;11.01;100.00;92551.03;2127200;27;20465;-80
2023/08/28 03:52:37;;;;;;;4.55;2.63;;;;;;;11.01;100.00;92557.13;2118207;27;20475;-81
2023/08/28 03:53:38;;;;;;;5.60;2.50;;;;;;;11.00;100.00;92555.66;2105717;28;20423;-81
2023/08/28 03:54:39;;;;;;;6.05;2.47;;;;;;;11.03;100.00;92554.78;2118538;27;20027;-81
2023/08/28 03:55:40;;;;;;;9.57;2.80;;;;;;;11.07;100.00;92549.34;2126174;27;20046;-80
2023/08/28 03:56:41;;;;;;;8.10;2.78;;;;;;;11.01;100.00;92549.13;2109524;28;20502;-80
2023/08/28 03:57:42;;;;;;;4.75;2.50;;;;;;;11.03;100.00;92548.69;2108778;28;20032;-80
2023/08/28 03:58:43;;;;;;;8.75;2.90;;;;;;;11.00;100.00;92544.22;2123659;27;20112;-81
2023/08/28 03:59:44;;;;;;;5.85;2.45;;;;;;;10.98;100.00;92539.31;2124337;27;20031;-81
2023/08/28 04:00:45;;;;;;;6.32;2.85;;;;;;;10.92;100.00;92541.00;2116648;27;20060;-81
2023/08/28 04:01:46;;;;;;;4.50;2.30;;;;;;;10.80;100.00;92533.78;2109142;28;20020;-81
2023/08/28 04:02:48;;;;;;;10.45;2.80;;;;;;;10.88;100.00;92531.63;2122271;27;20115;-81
2023/08/28 04:03:49;;;;;;;6.07;2.65;;;;;;;10.81;100.00;92529.94;2117849;27;20034;-81
2023/08/28 04:04:50;;;;;;;8.43;2.70;;;;;;;10.89;100.00;92530.44;2131664;27;20027;-81
2023/08/28 04:05:52;;;;;;;4.63;2.55;;;;;;;11.00;100.00;92528.16;2117514;27;20434;-81
2023/08/28 04:06:53;;;;;;;4.93;2.50;;;;;;;10.96;100.00;92535.56;2118072;27;20027;-81
2023/08/28 04:07:54;;;;;;;5.45;2.67;;;;;;;10.99;100.00;92529.34;2117977;27;20038;-81
2023/08/28 04:08:55;;;;;;;6.22;2.50;;;;;;;10.98;100.00;92528.59;2112274;27;20089;-81
2023/08/28 04:09:56;;;;;;;8.15;2.50;;;;;;;10.98;100.00;92523.25;2116610;27;20030;-81
2023/08/28 04:10:58;;;;;;;4.22;2.38;;;;;;;10.93;100.00;92523.03;2126981;27;20053;-80
2023/08/28 04:11:59;;;;;;;15.23;3.20;;;;;;;10.94;100.00;92525.31;2127436;27;20420;-80
2023/08/28 04:13:00;;;;;;;6.72;2.60;;;;;;;10.83;100.00;92520.28;2127072;27;20023;-82
2023/08/28 04:14:01;;;;;;;10.90;2.85;;;;;;;10.94;100.00;92525.31;2114407;27;20050;-81
2023/08/28 04:15:03;;;;;;;9.85;2.90;;;;;;;10.92;100.00;92513.53;2109602;28;20047;-80
2023/08/28 04:16:05;;;;;;;8.15;3.00;;;;;;;11.01;100.00;92519.69;2102348;28;20107;-81
2023/08/28 04:17:07;;;;;;;8.82;2.67;;;;;;;11.01;100.00;92521.63;2100087;27;20980;-80
2023/08/28 04:18:09;;;;;;;6.18;2.80;;;;;;;10.99;100.00;92524.75;2129981;27;20030;-80
2023/08/28 04:19:09;;;;;;;6.97;2.90;;;;;;;10.97;100.00;92534.38;2114721;27;20038;-81
2023/08/28 04:20:15;;;;;;;4.35;3.05;;;;;;;11.05;100.00;92525.69;2104301;28;20027;-80
2023/08/28 04:21:16;;;;;;;6.82;3.45;;;;;;;11.02;100.00;92526.56;2102426;28;20070;-81
2023/08/28 04:22:18;;;;;;;8.32;2.95;;;;;;;10.92;100.00;92530.31;2096386;28;20055;-81
2023/08/28 04:23:19;;;;;;;6.18;2.60;;;;;;;10.86;100.00;92521.34;2105731;28;20031;-81
2023/08/28 04:24:20;;;;;;;4.80;2.72;;;;;;;10.94;100.00;92521.88;2106425;28;20484;-80
2023/08/28 04:25:21;;;;;;;5.80;2.60;;;;;;;10.99;100.00;92521.31;2108256;28;20055;-82
2023/08/28 04:26:22;;;;;;;14.65;3.45;;;;;;;10.94;100.00;92533.31;2109690;28;20039;-80
2023/08/28 04:27:23;;;;;;;8.30;3.22;;;;;;;10.96;100.00;92522.19;2100496;28;20024;-81
2023/08/28 04:28:24;;;;;;;7.20;3.35;;;;;;;11.00;100.00;92518.22;2109452;28;20388;-81
2023/08/28 04:29:25;;;;;;;10.38;2.97;;;;;;;11.05;100.00;92511.56;2107917;28;20102;-81
2023/08/28 04:30:26;;;;;;;5.97;3.10;;;;;;;11.14;100.00;92519.66;2109481;27;20020;-81
2023/08/28 04:31:30;;;;;;;7.00;2.97;;;;;;;11.05;100.00;92523.00;2127128;27;20026;-80
2023/08/28 04:32:31;;;;;;;17.38;3.10;;;;;;;11.08;100.00;92522.16;2126532;27;20019;-81
2023/08/28 04:33:32;;;;;;;13.05;2.60;;;;;;;11.14;100.00;92516.25;2109025;28;20047;-81
2023/08/28 04:34:33;;;;;;;7.00;3.08;;;;;;;11.13;100.00;92520.84;2099265;28;20028;-81
2023/08/28 04:35:34;;;;;;;8.23;3.00;;;;;;;11.10;100.00;92522.44;2118736;27;20101;-80
2023/08/28 04:36:35;;;;;;;6.00;3.10;;;;;;;11.12;100.00;92515.94;2119528;27;20027;-81
2023/08/28 04:37:35;;;;;;;5.85;3.03;;;;;;;11.08;100.00;92526.75;2107993;28;20617;-80
2023/08/28 04:38:36;;;;;;;5.20;2.85;;;;;;;11.03;100.00;92521.97;2104601;28;20369;-81
2023/08/28 04:39:37;;;;;;;7.25;2.63;;;;;;;11.00;100.00;92528.91;2107929;28;20057;-82
2023/08/28 04:40:38;;;;;;;12.52;3.28;;;;;;;10.98;100.00;92530.53;2110995;28;20115;-81
2023/08/28 04:41:39;;;;;;;8.75;3.08;;;;;;;10.95;100.00;92534.81;2102195;28;20036;-80
2023/08/28 04:42:40;;;;;;;4.53;2.80;;;;;;;10.92;100.00;92535.66;2108688;28;20020;-81
2023/08/28 04:43:41;;;;;;;8.95;3.25;;;;;;;10.99;100.00;92543.47;2106021;28;20023;-80
2023/08/28 04:44:42;;;;;;;5.00;3.38;;;;;;;10.93;100.00;92534.50;2100167;28;20090;-81
2023/08/28 04:45:43;;;;;;;4.40;3.03;;;;;;;11.03;100.00;92536.06;2115007;27;20024;-82
2023/08/28 04:46:46;;;;;;;7.65;2.78;;;;;;;11.02;100.00;92537.25;2126188;27;20027;-81
2023/08/28 04:47:47;;;;;;;5.35;2.72;;;;;;;11.06;100.00;92537.13;2117938;27;20047;-81
2023/08/28 04:48:48;;;;;;;5.47;2.80;;;;;;;11.14;100.00;92537.63;2117304;27;20376;-81
2023/08/28 04:49:49;;;;;;;5.90;2.78;;;;;;;11.02;100.00;92541.88;2126950;27;20023;-81
2023/08/28 04:50:50;;;;;;;11.18;3.40;;;;;;;10.99;100.00;92548.06;2120270;27;20023;-82